createdAt,value
2017-08-05T00:00:55.199Z,63.06
2017-08-05T00:02:04.161Z,62.96
2017-08-05T00:03:13.125Z,62.86
2017-08-05T00:04:22.084Z,62.86
2017-08-05T00:05:31.049Z,62.96
2017-08-05T00:06:40.009Z,62.76
2017-08-05T00:07:48.976Z,62.76
2017-08-05T00:08:57.934Z,63.06
2017-08-05T00:10:06.893Z,62.86
2017-08-05T00:11:15.859Z,63.06
2017-08-05T00:12:24.822Z,62.76
2017-08-05T00:13:34.105Z,62.66
2017-08-05T00:14:43.069Z,62.86
2017-08-05T00:15:52.350Z,62.96
2017-08-05T00:17:01.306Z,63.06
2017-08-05T00:18:10.264Z,62.86
2017-08-05T00:19:19.230Z,63.15
2017-08-05T00:20:28.183Z,62.86
2017-08-05T00:21:37.148Z,62.57
2017-08-05T00:22:46.106Z,62.96
2017-08-05T00:23:55.072Z,63.24
2017-08-05T00:25:04.040Z,63.12
2017-08-05T00:26:13.350Z,64.11
2017-08-05T00:27:22.306Z,63.92
2017-08-05T00:28:31.289Z,64.59
2017-08-05T00:29:40.255Z,64.11
2017-08-05T00:30:49.217Z,63.82
2017-08-05T00:31:58.184Z,63.44
2017-08-05T00:33:07.150Z,63.34
2017-08-05T00:34:16.111Z,63.44
2017-08-05T00:35:25.067Z,63.15
2017-08-05T00:36:34.022Z,63.6
2017-08-05T00:37:42.993Z,63.34
2017-08-05T00:38:51.963Z,63.31
2017-08-05T00:40:00.917Z,63.02
2017-08-05T00:41:09.884Z,63.41
2017-08-05T00:42:18.836Z,63.12
2017-08-05T00:43:27.804Z,63.24
2017-08-05T00:44:36.759Z,63.21
2017-08-05T00:45:45.727Z,63.21
2017-08-05T00:46:54.689Z,63.54
2017-08-05T00:48:03.649Z,63.31
2017-08-05T00:49:12.620Z,63.21
2017-08-05T00:50:21.576Z,63.7
2017-08-05T00:51:30.544Z,63.7
2017-08-05T00:52:39.511Z,63.79
2017-08-05T00:53:48.467Z,63.98
2017-08-05T00:54:57.432Z,64.18
2017-08-05T00:56:07.047Z,63.98
2017-08-05T00:57:16.011Z,64.08
2017-08-05T00:58:25.288Z,63.89
2017-08-05T00:59:34.292Z,64.18
2017-08-05T01:00:43.250Z,63.89
2017-08-05T01:01:52.217Z,63.6
2017-08-05T01:03:01.182Z,63.98
2017-08-05T01:04:10.140Z,63.6
2017-08-05T01:05:19.099Z,63.7
2017-08-05T01:06:28.059Z,64.08
2017-08-05T01:07:37.016Z,63.89
2017-08-05T01:08:45.976Z,64.47
2017-08-05T01:09:54.945Z,64.37
2017-08-05T01:11:03.904Z,64.08
2017-08-05T01:12:12.864Z,64.47
2017-08-05T01:13:21.828Z,64.08
2017-08-05T01:14:30.792Z,64.08
2017-08-05T01:15:39.765Z,64.37
2017-08-05T01:16:48.727Z,64.37
2017-08-05T01:17:57.684Z,64.47
2017-08-05T01:19:06.638Z,64.86
2017-08-05T01:20:15.605Z,64.76
2017-08-05T01:21:24.561Z,65.05
2017-08-05T01:22:33.518Z,64.86
2017-08-05T01:23:42.488Z,65.05
2017-08-05T01:24:51.452Z,65.05
2017-08-05T01:26:00.742Z,65.43
2017-08-05T01:27:09.700Z,65.43
2017-08-05T01:28:18.670Z,65.63
2017-08-05T01:29:27.953Z,65.53
2017-08-05T01:30:36.920Z,65.43
2017-08-05T01:31:45.891Z,65.43
2017-08-05T01:32:54.853Z,65.53
2017-08-05T01:34:03.825Z,66.3
2017-08-05T01:35:12.802Z,66.07
2017-08-05T01:36:21.759Z,65.91
2017-08-05T01:37:30.725Z,66.2
2017-08-05T01:38:39.695Z,66.39
2017-08-05T01:39:48.651Z,66.01
2017-08-05T01:40:57.948Z,66.2
2017-08-05T01:42:06.912Z,66.36
2017-08-05T01:43:15.871Z,66.59
2017-08-05T01:44:24.828Z,66.39
2017-08-05T01:45:33.789Z,66.46
2017-08-05T01:46:42.758Z,66.65
2017-08-05T01:47:52.045Z,66.85
2017-08-05T01:49:01.003Z,66.55
2017-08-05T01:50:09.964Z,66.55
2017-08-05T01:51:18.928Z,66.55
2017-08-05T01:52:27.887Z,67.13
2017-08-05T01:53:36.845Z,66.94
2017-08-05T01:54:45.810Z,66.94
2017-08-05T01:55:54.781Z,67.13
2017-08-05T01:57:03.740Z,67.03
2017-08-05T01:58:12.698Z,67.03
2017-08-05T01:59:21.668Z,67.33
2017-08-05T02:00:30.627Z,67.33
2017-08-05T02:01:39.591Z,67.33
2017-08-05T02:02:48.543Z,67.13
2017-08-05T02:03:57.831Z,67.71
2017-08-05T02:05:06.792Z,67.33
2017-08-05T02:06:15.760Z,67.61
2017-08-05T02:07:24.722Z,67.33
2017-08-05T02:08:33.681Z,67.29
2017-08-05T02:09:42.642Z,67.71
2017-08-05T02:10:51.607Z,67.71
2017-08-05T02:12:00.568Z,67.68
2017-08-05T02:13:09.537Z,67.71
2017-08-05T02:14:18.829Z,67.58
2017-08-05T02:15:27.790Z,67.87
2017-08-05T02:16:36.745Z,67.71
2017-08-05T02:17:45.702Z,67.49
2017-08-05T02:18:54.660Z,68.19
2017-08-05T02:20:03.945Z,68.16
2017-08-05T02:21:12.908Z,68.16
2017-08-05T02:22:22.191Z,68.26
2017-08-05T02:23:31.149Z,68.16
2017-08-05T02:24:40.124Z,68.35
2017-08-05T02:25:49.089Z,68.64
2017-08-05T02:26:58.045Z,68.64
2017-08-05T02:28:07.011Z,68.44
2017-08-05T02:29:15.969Z,68.64
2017-08-05T02:30:24.923Z,68.26
2017-08-05T02:31:33.877Z,68.26
2017-08-05T02:32:42.845Z,68.84
2017-08-05T02:33:51.815Z,68.93
2017-08-05T02:35:00.783Z,69.02
2017-08-05T02:36:09.740Z,68.84
2017-08-05T02:37:18.701Z,68.84
2017-08-05T02:38:27.656Z,68.64
2017-08-05T02:39:36.621Z,68.74
2017-08-05T02:40:45.587Z,68.64
2017-08-05T02:41:54.555Z,68.93
2017-08-05T02:43:03.519Z,68.93
2017-08-05T02:44:12.489Z,68.74
2017-08-05T02:45:21.454Z,68.84
2017-08-05T02:46:30.749Z,68.84
2017-08-05T02:47:40.058Z,68.64
2017-08-05T02:48:49.016Z,68.9
2017-08-05T02:49:57.983Z,68.93
2017-08-05T02:51:06.946Z,69.18
2017-08-05T02:52:15.897Z,69.38
2017-08-05T02:53:24.853Z,69.18
2017-08-05T02:54:33.817Z,69.28
2017-08-05T02:55:42.773Z,69.57
2017-08-05T02:56:51.744Z,69.28
2017-08-05T02:58:00.702Z,69.28
2017-08-05T02:59:09.663Z,69.47
2017-08-05T03:00:18.619Z,69.28
2017-08-05T03:01:27.589Z,69.38
2017-08-05T03:02:36.547Z,69.76
2017-08-05T03:03:45.519Z,69.89
2017-08-05T03:04:54.473Z,69.51
2017-08-05T03:06:03.429Z,69.47
2017-08-05T03:07:12.385Z,69.57
2017-08-05T03:08:21.338Z,69.47
2017-08-05T03:09:30.304Z,69.47
2017-08-05T03:10:39.268Z,69.67
2017-08-05T03:11:48.237Z,69.76
2017-08-05T03:12:57.208Z,69.85
2017-08-05T03:14:06.159Z,69.85
2017-08-05T03:15:15.124Z,69.57
2017-08-05T03:16:24.080Z,69.67
2017-08-05T03:17:33.345Z,69.47
2017-08-05T03:18:42.307Z,69.47
2017-08-05T03:19:51.269Z,69.47
2017-08-05T03:21:00.223Z,70.05
2017-08-05T03:22:09.179Z,69.85
2017-08-05T03:23:18.135Z,70.34
2017-08-05T03:24:27.101Z,69.95
2017-08-05T03:25:36.057Z,70.15
2017-08-05T03:26:45.009Z,69.85
2017-08-05T03:27:53.963Z,70.05
2017-08-05T03:29:02.923Z,70.05
2017-08-05T03:30:11.877Z,70.05
2017-08-05T03:31:20.851Z,69.76
2017-08-05T03:32:29.812Z,69.95
2017-08-05T03:33:38.778Z,69.85
2017-08-05T03:34:47.742Z,70.34
2017-08-05T03:35:56.699Z,70.05
2017-08-05T03:37:05.664Z,69.76
2017-08-05T03:38:14.619Z,70.15
2017-08-05T03:39:23.579Z,69.95
2017-08-05T03:40:32.540Z,69.95
2017-08-05T03:41:41.506Z,69.95
2017-08-05T03:42:50.471Z,70.05
2017-08-05T03:43:59.432Z,69.67
2017-08-05T03:45:08.739Z,70.01
2017-08-05T03:46:17.693Z,69.92
2017-08-05T03:47:26.650Z,70.15
2017-08-05T03:48:35.606Z,69.95
2017-08-05T03:49:44.580Z,69.85
2017-08-05T03:50:53.536Z,69.73
2017-08-05T03:52:02.497Z,69.47
2017-08-05T03:53:11.466Z,69.47
2017-08-05T03:54:20.428Z,69.38
2017-08-05T03:55:29.384Z,69.53
2017-08-05T03:56:38.338Z,69.38
2017-08-05T03:57:47.629Z,69.67
2017-08-05T03:58:56.589Z,69.47
2017-08-05T04:00:05.545Z,69.47
2017-08-05T04:01:14.828Z,69.28
2017-08-05T04:02:23.789Z,69.18
2017-08-05T04:03:32.741Z,69.38
2017-08-05T04:04:41.699Z,69.09
2017-08-05T04:05:50.666Z,69.15
2017-08-05T04:06:59.620Z,69.18
2017-08-05T04:08:08.911Z,69.15
2017-08-05T04:09:17.873Z,68.76
2017-08-05T04:10:26.908Z,68.67
2017-08-05T04:11:35.873Z,68.6
2017-08-05T04:12:44.832Z,68.76
2017-08-05T04:13:53.790Z,69.15
2017-08-05T04:15:02.766Z,68.8
2017-08-05T04:16:11.729Z,68.96
2017-08-05T04:17:20.689Z,68.86
2017-08-05T04:18:29.646Z,69.24
2017-08-05T04:19:38.598Z,69.24
2017-08-05T04:20:47.574Z,69.34
2017-08-05T04:21:56.535Z,69.38
2017-08-05T04:23:05.496Z,69.15
2017-08-05T04:24:14.454Z,69.24
2017-08-05T04:25:23.416Z,69.15
2017-08-05T04:26:32.374Z,69.24
2017-08-05T04:27:41.333Z,69.24
2017-08-05T04:28:50.618Z,69.24
2017-08-05T04:29:59.567Z,69.09
2017-08-05T04:31:08.528Z,68.76
2017-08-05T04:32:17.499Z,68.8
2017-08-05T04:33:26.457Z,68.76
2017-08-05T04:34:35.411Z,69.15
2017-08-05T04:35:44.365Z,68.86
2017-08-05T04:36:53.326Z,68.99
2017-08-05T04:38:02.296Z,69.18
2017-08-05T04:39:11.252Z,69.38
2017-08-05T04:40:20.210Z,69.18
2017-08-05T04:41:29.162Z,69.18
2017-08-05T04:42:38.111Z,69.28
2017-08-05T04:43:47.062Z,69.18
2017-08-05T04:44:56.367Z,68.8
2017-08-05T04:46:05.321Z,68.7
2017-08-05T04:47:14.283Z,68.9
2017-08-05T04:48:23.241Z,68.22
2017-08-05T04:49:32.222Z,68.22
2017-08-05T04:50:41.174Z,68.32
2017-08-05T04:51:50.465Z,68.41
2017-08-05T04:52:59.434Z,68.6
2017-08-05T04:54:08.401Z,68.41
2017-08-05T04:55:17.450Z,68.22
2017-08-05T04:56:26.409Z,68.22
2017-08-05T04:57:35.364Z,68.51
2017-08-05T04:58:44.319Z,68.6
2017-08-05T04:59:53.282Z,68.99
2017-08-05T05:01:02.243Z,68.99
2017-08-05T05:02:11.197Z,68.8
2017-08-05T05:03:20.172Z,68.7
2017-08-05T05:04:29.137Z,68.22
2017-08-05T05:05:38.094Z,68.41
2017-08-05T05:06:47.052Z,68.22
2017-08-05T05:07:56.337Z,68.8
2017-08-05T05:09:05.292Z,68.8
2017-08-05T05:10:14.255Z,68.9
2017-08-05T05:11:23.205Z,69.09
2017-08-05T05:12:32.164Z,68.9
2017-08-05T05:13:41.125Z,68.9
2017-08-05T05:14:50.411Z,68.6
2017-08-05T05:15:59.371Z,68.32
2017-08-05T05:17:08.327Z,68.51
2017-08-05T05:18:17.290Z,68.41
2017-08-05T05:19:26.263Z,68.51
2017-08-05T05:20:35.218Z,67.93
2017-08-05T05:21:44.180Z,68.06
2017-08-05T05:22:53.134Z,67.87
2017-08-05T05:24:02.091Z,67.68
2017-08-05T05:25:11.380Z,67.45
2017-08-05T05:26:20.338Z,67.77
2017-08-05T05:27:29.297Z,67.49
2017-08-05T05:28:38.252Z,67.58
2017-08-05T05:29:47.219Z,67.19
2017-08-05T05:30:56.179Z,67.68
2017-08-05T05:32:05.462Z,67.39
2017-08-05T05:33:14.422Z,67.39
2017-08-05T05:34:23.385Z,67
2017-08-05T05:35:32.352Z,67.19
2017-08-05T05:36:41.303Z,66.33
2017-08-05T05:37:50.269Z,66.62
2017-08-05T05:38:59.225Z,66.71
2017-08-05T05:40:08.185Z,66.42
2017-08-05T05:41:17.145Z,66.04
2017-08-05T05:42:26.112Z,65.94
2017-08-05T05:43:35.075Z,65.94
2017-08-05T05:44:44.033Z,66.14
2017-08-05T05:45:52.989Z,65.94
2017-08-05T05:47:01.953Z,66.07
2017-08-05T05:48:10.911Z,65.11
2017-08-05T05:49:19.876Z,65.37
2017-08-05T05:50:28.833Z,65.56
2017-08-05T05:51:37.783Z,65.5
2017-08-05T05:52:46.739Z,65.56
2017-08-05T05:53:55.699Z,65.08
2017-08-05T05:55:04.689Z,65.56
2017-08-05T05:56:13.663Z,65.46
2017-08-05T05:57:22.626Z,65.11
2017-08-05T05:58:31.600Z,65.27
2017-08-05T05:59:40.552Z,64.82
2017-08-05T06:00:49.515Z,65.37
2017-08-05T06:01:58.475Z,65.37
2017-08-05T06:03:07.434Z,65.3
2017-08-05T06:04:16.388Z,65.27
2017-08-05T06:05:25.349Z,64.73
2017-08-05T06:06:34.309Z,65.3
2017-08-05T06:07:43.280Z,64.63
2017-08-05T06:08:52.258Z,64.82
2017-08-05T06:10:01.211Z,64.63
2017-08-05T06:11:10.174Z,64.92
2017-08-05T06:12:19.130Z,64.82
2017-08-05T06:13:28.096Z,65.01
2017-08-05T06:14:37.060Z,64.92
2017-08-05T06:15:46.020Z,64.73
2017-08-05T06:16:54.982Z,65.01
2017-08-05T06:18:03.941Z,64.56
2017-08-05T06:19:12.898Z,64.28
2017-08-05T06:20:21.864Z,63.79
2017-08-05T06:21:30.827Z,63.98
2017-08-05T06:22:40.123Z,63.79
2017-08-05T06:23:49.084Z,63.98
2017-08-05T06:24:58.047Z,63.21
2017-08-05T06:26:07.017Z,62.54
2017-08-05T06:27:15.979Z,63.02
2017-08-05T06:28:24.933Z,62.83
2017-08-05T06:29:33.889Z,62.83
2017-08-05T06:30:42.854Z,63.31
2017-08-05T06:31:51.805Z,63.41
2017-08-05T06:33:00.761Z,63.41
2017-08-05T06:34:09.726Z,63.31
2017-08-05T06:35:18.688Z,63.31
2017-08-05T06:36:27.650Z,63.41
2017-08-05T06:37:36.618Z,63.02
2017-08-05T06:38:45.577Z,62.73
2017-08-05T06:39:54.535Z,62.83
2017-08-05T06:41:03.826Z,62.66
2017-08-05T06:42:12.782Z,62.45
2017-08-05T06:43:21.751Z,62.63
2017-08-05T06:44:30.711Z,62.66
2017-08-05T06:45:39.675Z,62.18
2017-08-05T06:46:48.641Z,62.18
2017-08-05T06:47:57.603Z,62.09
2017-08-05T06:49:06.567Z,61.8
2017-08-05T06:50:15.528Z,61.61
2017-08-05T06:51:24.485Z,61.71
2017-08-05T06:52:33.461Z,61.32
2017-08-05T06:53:42.426Z,61.03
2017-08-05T06:54:51.392Z,60.93
2017-08-05T06:56:00.357Z,60.74
2017-08-05T06:57:09.317Z,60.93
2017-08-05T06:58:18.283Z,61.13
2017-08-05T06:59:27.251Z,60.74
2017-08-05T07:00:36.209Z,60.83
2017-08-05T07:01:45.174Z,60.93
2017-08-05T07:02:54.463Z,61.22
2017-08-05T07:04:03.428Z,61.03
2017-08-05T07:05:12.708Z,60.93
2017-08-05T07:06:21.665Z,60.83
2017-08-05T07:07:30.625Z,60.64
2017-08-05T07:08:39.593Z,61.22
2017-08-05T07:09:48.552Z,60.96
2017-08-05T07:10:57.513Z,61.25
2017-08-05T07:12:06.478Z,60.58
2017-08-05T07:13:15.437Z,59.9
2017-08-05T07:14:24.714Z,60
2017-08-05T07:15:33.684Z,59.8
2017-08-05T07:16:42.646Z,59.71
2017-08-05T07:17:51.609Z,59.61
2017-08-05T07:19:00.584Z,59.9
2017-08-05T07:20:09.546Z,59.8
2017-08-05T07:21:18.501Z,59.68
2017-08-05T07:22:27.786Z,59.8
2017-08-05T07:23:36.744Z,59.9
2017-08-05T07:24:45.702Z,59.42
2017-08-05T07:25:54.677Z,58.94
2017-08-05T07:27:03.985Z,59.13
2017-08-05T07:28:12.941Z,58.94
2017-08-05T07:29:21.903Z,58.55
2017-08-05T07:30:30.862Z,58.45
2017-08-05T07:31:39.829Z,58.55
2017-08-05T07:32:48.785Z,58.87
2017-08-05T07:33:57.750Z,58.48
2017-08-05T07:35:06.703Z,57.71
2017-08-05T07:36:15.670Z,56.46
2017-08-05T07:37:24.624Z,56.07
2017-08-05T07:38:33.589Z,55.78
2017-08-05T07:39:42.555Z,55.49
2017-08-05T07:40:51.522Z,55.68
2017-08-05T07:42:00.485Z,56.16
2017-08-05T07:43:09.442Z,56.16
2017-08-05T07:44:18.453Z,56.1
2017-08-05T07:45:27.408Z,56.2
2017-08-05T07:46:36.364Z,56.1
2017-08-05T07:47:45.336Z,55.71
2017-08-05T07:48:54.307Z,55.33
2017-08-05T07:50:03.596Z,55.23
2017-08-05T07:51:12.883Z,55.71
2017-08-05T07:52:21.848Z,55.71
2017-08-05T07:53:30.808Z,55.71
2017-08-05T07:54:39.771Z,55.71
2017-08-05T07:55:48.736Z,56
2017-08-05T07:56:57.701Z,56
2017-08-05T07:58:06.983Z,56.2
2017-08-05T07:59:15.937Z,55.81
2017-08-05T08:00:24.900Z,56
2017-08-05T08:01:34.183Z,56
2017-08-05T08:02:43.156Z,56.29
2017-08-05T08:03:52.121Z,56.2
2017-08-05T08:05:01.100Z,56.29
2017-08-05T08:06:10.398Z,56.39
2017-08-05T08:07:19.356Z,56.1
2017-08-05T08:08:28.325Z,55.42
2017-08-05T08:09:37.292Z,55.13
2017-08-05T08:10:46.254Z,55.04
2017-08-05T08:11:55.215Z,54.94
2017-08-05T08:13:04.176Z,55.33
2017-08-05T08:14:13.136Z,55.13
2017-08-05T08:15:22.092Z,54.84
2017-08-05T08:16:31.071Z,55.35
2017-08-05T08:17:40.035Z,55.45
2017-08-05T08:18:48.986Z,55.45
2017-08-05T08:19:57.957Z,56.03
2017-08-05T08:21:07.568Z,55.55
2017-08-05T08:22:16.532Z,55.74
2017-08-05T08:23:25.500Z,55.35
2017-08-05T08:24:34.460Z,55.26
2017-08-05T08:25:43.418Z,55.16
2017-08-05T08:26:52.396Z,54.58
2017-08-05T08:28:01.360Z,55.07
2017-08-05T08:29:10.337Z,54.77
2017-08-05T08:30:19.290Z,54.77
2017-08-05T08:31:28.250Z,54.77
2017-08-05T08:32:37.218Z,54.8
2017-08-05T08:33:46.186Z,54.58
2017-08-05T08:34:55.144Z,54.32
2017-08-05T08:36:04.123Z,54.51
2017-08-05T08:37:13.094Z,54.41
2017-08-05T08:38:22.053Z,54.32
2017-08-05T08:39:31.018Z,54.32
2017-08-05T08:40:39.978Z,54.41
2017-08-05T08:41:48.940Z,54.44
2017-08-05T08:42:57.895Z,54.25
2017-08-05T08:44:06.851Z,53.77
2017-08-05T08:45:15.812Z,53.96
2017-08-05T08:46:24.776Z,53.28
2017-08-05T08:47:33.751Z,52.99
2017-08-05T08:48:42.720Z,52.99
2017-08-05T08:49:51.678Z,53.19
2017-08-05T08:51:00.636Z,52.8
2017-08-05T08:52:09.613Z,52.73
2017-08-05T08:53:18.901Z,52.05
2017-08-05T08:54:28.192Z,51.66
2017-08-05T08:55:37.478Z,51.56
2017-08-05T08:56:46.501Z,51.95
2017-08-05T08:57:55.465Z,52.14
2017-08-05T08:59:04.432Z,51.86
2017-08-05T09:00:13.419Z,52.05
2017-08-05T09:01:22.408Z,52.22
2017-08-05T09:02:31.366Z,52.53
2017-08-05T09:03:40.335Z,52.82
2017-08-05T09:04:49.291Z,52.53
2017-08-05T09:05:58.269Z,52.14
2017-08-05T09:07:07.239Z,51.56
2017-08-05T09:08:16.197Z,51.37
2017-08-05T09:09:25.495Z,51.28
2017-08-05T09:10:34.456Z,51.37
2017-08-05T09:11:43.422Z,51.76
2017-08-05T09:12:52.709Z,51.95
2017-08-05T09:14:02.000Z,52.14
2017-08-05T09:15:11.290Z,51.86
2017-08-05T09:16:20.249Z,52.24
2017-08-05T09:17:29.215Z,51.56
2017-08-05T09:18:38.172Z,51.47
2017-08-05T09:19:47.135Z,51.47
2017-08-05T09:20:56.101Z,51.47
2017-08-05T09:22:05.393Z,51.37
2017-08-05T09:23:14.358Z,51.4
2017-08-05T09:24:23.339Z,50.7
2017-08-05T09:25:32.306Z,50.72
2017-08-05T09:26:41.277Z,50.62
2017-08-05T09:27:50.239Z,50.82
2017-08-05T09:28:59.232Z,50.33
2017-08-05T09:30:08.563Z,50.52
2017-08-05T09:31:17.525Z,50.14
2017-08-05T09:32:26.484Z,50.4
2017-08-05T09:33:35.454Z,49.95
2017-08-05T09:34:44.423Z,50.31
2017-08-05T09:35:53.387Z,50.21
2017-08-05T09:37:02.351Z,50.12
2017-08-05T09:38:11.318Z,50.7
2017-08-05T09:39:20.283Z,51.01
2017-08-05T09:40:29.245Z,50.4
2017-08-05T09:41:38.212Z,50.92
2017-08-05T09:42:47.178Z,50.33
2017-08-05T09:43:56.142Z,50.62
2017-08-05T09:45:05.110Z,50.82
2017-08-05T09:46:14.074Z,51.3
2017-08-05T09:47:23.033Z,51.4
2017-08-05T09:48:31.998Z,51.2
2017-08-05T09:49:40.966Z,51.5
2017-08-05T09:50:49.923Z,51.9
2017-08-05T09:51:58.887Z,50.84
2017-08-05T09:53:07.853Z,50.84
2017-08-05T09:54:16.808Z,50.84
2017-08-05T09:55:25.775Z,50.65
2017-08-05T09:56:34.724Z,50.65
2017-08-05T09:57:43.683Z,50.26
2017-08-05T09:58:52.644Z,50.94
2017-08-05T10:00:01.600Z,50.65
2017-08-05T10:01:10.584Z,50.74
2017-08-05T10:02:19.552Z,50.65
2017-08-05T10:03:28.841Z,50.45
2017-08-05T10:04:37.814Z,50.35
2017-08-05T10:05:46.775Z,50.45
2017-08-05T10:06:55.731Z,50.84
2017-08-05T10:08:05.009Z,50.94
2017-08-05T10:09:13.976Z,50.16
2017-08-05T10:10:22.936Z,50.45
2017-08-05T10:11:31.894Z,50.55
2017-08-05T10:12:40.862Z,50.74
2017-08-05T10:13:49.821Z,51.3
2017-08-05T10:14:58.784Z,51.32
2017-08-05T10:16:08.080Z,51.62
2017-08-05T10:17:17.047Z,51.72
2017-08-05T10:18:26.030Z,52.1
2017-08-05T10:19:34.996Z,52.36
2017-08-05T10:20:43.956Z,52.95
2017-08-05T10:21:53.247Z,52.85
2017-08-05T10:23:02.214Z,52.95
2017-08-05T10:24:11.173Z,52.17
2017-08-05T10:25:20.140Z,52.08
2017-08-05T10:26:29.095Z,52.95
2017-08-05T10:27:38.058Z,52.66
2017-08-05T10:28:47.025Z,52.85
2017-08-05T10:29:56.001Z,51.98
2017-08-05T10:31:04.961Z,52.36
2017-08-05T10:32:13.917Z,52.17
2017-08-05T10:33:22.879Z,52.56
2017-08-05T10:34:31.842Z,52.63
2017-08-05T10:35:40.808Z,52.63
2017-08-05T10:36:49.767Z,52.53
2017-08-05T10:37:58.722Z,53.02
2017-08-05T10:39:07.683Z,53.02
2017-08-05T10:40:16.645Z,53.21
2017-08-05T10:41:25.610Z,53.99
2017-08-05T10:42:34.573Z,53.79
2017-08-05T10:43:43.539Z,53.99
2017-08-05T10:44:52.508Z,54.17
2017-08-05T10:46:01.480Z,54.37
2017-08-05T10:47:10.441Z,54.27
2017-08-05T10:48:19.409Z,54.57
2017-08-05T10:49:28.365Z,54.57
2017-08-05T10:50:37.327Z,54.66
2017-08-05T10:51:46.291Z,54.47
2017-08-05T10:52:55.255Z,54.44
2017-08-05T10:54:04.866Z,54.44
2017-08-05T10:55:13.838Z,54.44
2017-08-05T10:56:22.796Z,54.25
2017-08-05T10:57:31.753Z,54.93
2017-08-05T10:58:40.718Z,55.02
2017-08-05T10:59:49.678Z,54.93
2017-08-05T11:00:58.637Z,55.21
2017-08-05T11:02:07.595Z,54.93
2017-08-05T11:03:16.885Z,54.93
2017-08-05T11:04:25.858Z,54.93
2017-08-05T11:05:34.813Z,55.41
2017-08-05T11:06:43.769Z,55.31
2017-08-05T11:07:52.721Z,55.89
2017-08-05T11:09:01.687Z,55.7
2017-08-05T11:10:10.645Z,56.09
2017-08-05T11:11:19.600Z,56.28
2017-08-05T11:12:28.568Z,56.28
2017-08-05T11:13:37.529Z,56.95
2017-08-05T11:14:46.494Z,56.83
2017-08-05T11:15:55.451Z,57.24
2017-08-05T11:17:04.749Z,57.73
2017-08-05T11:18:13.701Z,58.57
2017-08-05T11:19:22.654Z,59.92
2017-08-05T11:20:31.613Z,60.6
2017-08-05T11:21:40.572Z,61.47
2017-08-05T11:22:49.532Z,63.47
2017-08-05T11:23:58.496Z,65.59
2017-08-05T11:25:07.452Z,67.24
2017-08-05T11:26:16.406Z,69.46
2017-08-05T11:27:25.374Z,71.26
2017-08-05T11:28:34.662Z,73.19
2017-08-05T11:29:43.627Z,74.25
2017-08-05T11:30:52.582Z,75.57
2017-08-05T11:32:01.563Z,76.34
2017-08-05T11:33:10.519Z,77.11
2017-08-05T11:34:19.476Z,78.08
2017-08-05T11:35:28.438Z,78.71
2017-08-05T11:36:37.404Z,81.12
2017-08-05T11:37:46.362Z,84.69
2017-08-05T11:38:55.316Z,87.06
2017-08-05T11:40:04.290Z,88.31
2017-08-05T11:41:13.256Z,89.72
2017-08-05T11:42:22.240Z,91.36
2017-08-05T11:43:31.202Z,92.13
2017-08-05T11:44:40.163Z,93.28
2017-08-05T11:45:49.133Z,94.01
2017-08-05T11:46:58.098Z,94.78
2017-08-05T11:48:07.377Z,95.74
2017-08-05T11:49:16.343Z,96.51
2017-08-05T11:50:25.305Z,97.57
2017-08-05T11:51:34.267Z,97.96
2017-08-05T11:52:43.247Z,98.34
2017-08-05T11:53:52.535Z,99.69
2017-08-05T11:55:01.495Z,99.84
2017-08-05T11:56:10.454Z,99.99
2017-08-05T11:57:19.419Z,99.99
2017-08-05T11:58:28.390Z,99.99
2017-08-05T11:59:37.357Z,99.99
2017-08-05T12:00:46.317Z,99.99
2017-08-05T12:01:55.283Z,99.99
2017-08-05T12:03:04.246Z,99.99
2017-08-05T12:04:13.210Z,99.99
2017-08-05T12:05:22.174Z,99.99
2017-08-05T12:06:31.127Z,99.99
2017-08-05T12:07:40.088Z,99.99
2017-08-05T12:08:49.051Z,99.99
2017-08-05T12:09:58.007Z,99.99
2017-08-05T12:11:06.965Z,99.99
2017-08-05T12:12:15.931Z,99.99
2017-08-05T12:13:24.891Z,99.99
2017-08-05T12:14:33.844Z,99.99
2017-08-05T12:15:42.804Z,99.99
2017-08-05T12:16:51.764Z,99.99
2017-08-05T12:18:00.720Z,99.99
2017-08-05T12:19:09.674Z,99.99
2017-08-05T12:20:18.648Z,99.99
2017-08-05T12:21:27.605Z,99.99
2017-08-05T12:22:36.898Z,99.99
2017-08-05T12:23:45.852Z,99.99
2017-08-05T12:24:54.833Z,99.99
2017-08-05T12:26:03.785Z,99.99
2017-08-05T12:27:12.745Z,99.99
2017-08-05T12:28:21.713Z,99.99
2017-08-05T12:29:30.670Z,99.99
2017-08-05T12:30:39.634Z,99.99
2017-08-05T12:31:48.590Z,99.99
2017-08-05T12:32:57.548Z,99.99
2017-08-05T12:34:06.506Z,99.99
2017-08-05T12:35:15.466Z,99.99
2017-08-05T12:36:24.424Z,99.99
2017-08-05T12:37:33.712Z,99.99
2017-08-05T12:38:42.680Z,99.99
2017-08-05T12:39:51.647Z,99.99
2017-08-05T12:41:00.609Z,99.99
2017-08-05T12:42:09.894Z,99.99
2017-08-05T12:43:18.875Z,99.99
2017-08-05T12:44:27.839Z,99.99
2017-08-05T12:45:36.803Z,99.99
2017-08-05T12:46:45.772Z,99.99
2017-08-05T12:47:54.736Z,99.99
2017-08-05T12:49:03.696Z,99.99
2017-08-05T12:50:12.660Z,99.99
2017-08-05T12:51:21.622Z,99.99
2017-08-05T12:52:30.588Z,99.99
2017-08-05T12:53:39.539Z,99.99
2017-08-05T12:54:48.503Z,99.99
2017-08-05T12:55:57.459Z,99.99
2017-08-05T12:57:06.422Z,99.99
2017-08-05T12:58:15.387Z,99.99
2017-08-05T12:59:24.352Z,99.99
2017-08-05T13:00:33.312Z,99.99
2017-08-05T13:01:42.280Z,99.99
2017-08-05T13:02:51.252Z,99.99
2017-08-05T13:04:00.211Z,99.99
2017-08-05T13:05:09.170Z,99.99
2017-08-05T13:06:18.134Z,99.99
2017-08-05T13:07:27.115Z,99.99
2017-08-05T13:08:36.079Z,99.99
2017-08-05T13:09:45.366Z,99.99
2017-08-05T13:10:54.333Z,99.99
2017-08-05T13:12:03.287Z,99.99
2017-08-05T13:13:12.245Z,99.99
2017-08-05T13:14:21.211Z,99.99
2017-08-05T13:15:30.167Z,99.99
2017-08-05T13:16:39.133Z,99.99
2017-08-05T13:17:48.097Z,99.99
2017-08-05T13:18:57.064Z,99.99
2017-08-05T13:20:06.024Z,99.99
2017-08-05T13:21:14.991Z,99.99
2017-08-05T13:22:23.960Z,99.99
2017-08-05T13:23:32.918Z,99.99
2017-08-05T13:24:41.869Z,99.99
2017-08-05T13:25:50.835Z,99.99
2017-08-05T13:26:59.806Z,99.99
2017-08-05T13:28:08.777Z,99.99
2017-08-05T13:29:17.744Z,99.99
2017-08-05T13:30:27.055Z,99.99
2017-08-05T13:31:36.016Z,99.99
2017-08-05T13:32:44.985Z,99.99
2017-08-05T13:33:53.944Z,99.99
2017-08-05T13:35:02.994Z,99.99
2017-08-05T13:36:11.952Z,99.99
2017-08-05T13:37:20.909Z,99.99
2017-08-05T13:38:29.872Z,99.99
2017-08-05T13:39:38.822Z,99.99
2017-08-05T13:40:47.784Z,99.99
2017-08-05T13:41:56.744Z,99.99
2017-08-05T13:43:05.700Z,99.99
2017-08-05T13:44:14.663Z,99.99
2017-08-05T13:45:23.617Z,99.99
2017-08-05T13:46:32.587Z,99.99
2017-08-05T13:47:41.545Z,99.99
2017-08-05T13:48:50.509Z,99.99
2017-08-05T13:49:59.476Z,99.99
2017-08-05T13:51:08.441Z,99.99
2017-08-05T13:52:17.395Z,99.99
2017-08-05T13:53:26.356Z,99.99
2017-08-05T13:54:35.328Z,99.99
2017-08-05T13:55:44.293Z,99.99
2017-08-05T13:56:53.249Z,99.99
2017-08-05T13:58:02.222Z,99.99
2017-08-05T13:59:11.182Z,99.99
2017-08-05T14:00:20.140Z,99.99
2017-08-05T14:01:29.103Z,99.99
2017-08-05T14:02:38.390Z,99.99
2017-08-05T14:03:47.350Z,99.99
2017-08-05T14:04:56.310Z,99.99
2017-08-05T14:06:05.269Z,99.99
2017-08-05T14:07:14.231Z,99.99
2017-08-05T14:08:23.190Z,99.99
2017-08-05T14:09:32.146Z,99.99
2017-08-05T14:10:41.435Z,99.99
2017-08-05T14:11:50.394Z,99.99
2017-08-05T14:12:59.349Z,99.99
2017-08-05T14:14:08.317Z,99.99
2017-08-05T14:15:17.283Z,99.99
2017-08-05T14:16:26.254Z,99.99
2017-08-05T14:17:35.214Z,99.99
2017-08-05T14:18:44.175Z,99.99
2017-08-05T14:19:53.137Z,99.99
2017-08-05T14:21:02.094Z,99.99
2017-08-05T14:22:11.070Z,99.99
2017-08-05T14:23:20.040Z,99.99
2017-08-05T14:24:28.999Z,99.99
2017-08-05T14:25:37.957Z,99.99
2017-08-05T14:26:46.928Z,99.99
2017-08-05T14:27:55.887Z,99.99
2017-08-05T14:29:04.842Z,99.99
2017-08-05T14:30:13.803Z,99.99
2017-08-05T14:31:23.082Z,99.99
2017-08-05T14:32:32.040Z,99.99
2017-08-05T14:33:40.992Z,99.99
2017-08-05T14:34:49.951Z,99.99
2017-08-05T14:35:58.935Z,99.99
2017-08-05T14:37:08.219Z,99.99
2017-08-05T14:38:17.182Z,99.99
2017-08-05T14:39:26.147Z,99.99
2017-08-05T14:40:35.107Z,99.99
2017-08-05T14:41:44.079Z,99.99
2017-08-05T14:42:53.358Z,99.99
2017-08-05T14:44:02.330Z,99.99
2017-08-05T14:45:11.620Z,99.99
2017-08-05T14:46:20.581Z,99.99
2017-08-05T14:47:29.544Z,99.99
2017-08-05T14:48:38.500Z,99.99
2017-08-05T14:49:47.462Z,99.99
2017-08-05T14:50:56.426Z,99.99
2017-08-05T14:52:05.380Z,99.99